sensor_id;sensor_type;location;lat;lon;timestamp;temperature;humidity
72762;SHT30;60886;55.034;73.150;2024-01-27T00:02:35;-14.82;79.83
72762;SHT30;60886;55.034;73.150;2024-01-27T00:05:36;-14.82;79.81
72762;SHT30;60886;55.034;73.150;2024-01-27T00:08:37;-14.81;79.94
72762;SHT30;60886;55.034;73.150;2024-01-27T00:11:39;-14.85;79.71
72762;SHT30;60886;55.034;73.150;2024-01-27T00:14:40;-14.85;79.64
72762;SHT30;60886;55.034;73.150;2024-01-27T00:17:42;-14.88;79.49
72762;SHT30;60886;55.034;73.150;2024-01-27T00:20:43;-14.95;79.62
72762;SHT30;60886;55.034;73.150;2024-01-27T00:23:44;-14.96;79.87
72762;SHT30;60886;55.034;73.150;2024-01-27T00:26:46;-14.96;79.96
72762;SHT30;60886;55.034;73.150;2024-01-27T00:29:47;-14.99;79.93
72762;SHT30;60886;55.034;73.150;2024-01-27T00:32:49;-15.02;79.89
72762;SHT30;60886;55.034;73.150;2024-01-27T00:35:51;-15.00;80.13
72762;SHT30;60886;55.034;73.150;2024-01-27T00:38:52;-15.00;80.01
72762;SHT30;60886;55.034;73.150;2024-01-27T00:41:54;-15.05;79.91
72762;SHT30;60886;55.034;73.150;2024-01-27T00:44:56;-15.06;80.11
72762;SHT30;60886;55.034;73.150;2024-01-27T00:47:58;-15.10;80.15
72762;SHT30;60886;55.034;73.150;2024-01-27T00:50:59;-15.10;80.25
72762;SHT30;60886;55.034;73.150;2024-01-27T00:54:00;-15.05;80.40
72762;SHT30;60886;55.034;73.150;2024-01-27T00:57:02;-15.00;80.19
72762;SHT30;60886;55.034;73.150;2024-01-27T01:00:06;-15.06;79.87
72762;SHT30;60886;55.034;73.150;2024-01-27T01:03:07;-15.05;80.01
72762;SHT30;60886;55.034;73.150;2024-01-27T01:06:09;-15.12;79.99
72762;SHT30;60886;55.034;73.150;2024-01-27T01:09:10;-15.12;79.99
72762;SHT30;60886;55.034;73.150;2024-01-27T01:12:12;-15.13;79.84
72762;SHT30;60886;55.034;73.150;2024-01-27T01:15:15;-15.15;79.91
72762;SHT30;60886;55.034;73.150;2024-01-27T01:18:30;-15.15;80.00
72762;SHT30;60886;55.034;73.150;2024-01-27T01:21:31;-15.20;79.81
72762;SHT30;60886;55.034;73.150;2024-01-27T01:24:33;-15.24;79.94
72762;SHT30;60886;55.034;73.150;2024-01-27T01:27:35;-15.20;80.31
72762;SHT30;60886;55.034;73.150;2024-01-27T01:30:36;-15.20;80.20
72762;SHT30;60886;55.034;73.150;2024-01-27T01:33:37;-15.17;80.03
72762;SHT30;60886;55.034;73.150;2024-01-27T01:36:39;-15.19;79.92
72762;SHT30;60886;55.034;73.150;2024-01-27T01:39:40;-15.19;79.91
72762;SHT30;60886;55.034;73.150;2024-01-27T01:42:42;-15.20;79.92
72762;SHT30;60886;55.034;73.150;2024-01-27T01:45:43;-15.23;79.85
72762;SHT30;60886;55.034;73.150;2024-01-27T01:48:45;-15.23;79.80
72762;SHT30;60886;55.034;73.150;2024-01-27T01:51:46;-15.31;79.77
72762;SHT30;60886;55.034;73.150;2024-01-27T01:54:48;-15.33;79.85
72762;SHT30;60886;55.034;73.150;2024-01-27T01:57:51;-15.36;79.94
72762;SHT30;60886;55.034;73.150;2024-01-27T02:00:52;-15.34;80.08
72762;SHT30;60886;55.034;73.150;2024-01-27T02:03:54;-15.36;80.12
72762;SHT30;60886;55.034;73.150;2024-01-27T02:06:56;-15.41;79.89
72762;SHT30;60886;55.034;73.150;2024-01-27T02:09:57;-15.40;80.15
72762;SHT30;60886;55.034;73.150;2024-01-27T02:12:59;-15.38;80.20
72762;SHT30;60886;55.034;73.150;2024-01-27T02:16:00;-15.40;80.01
72762;SHT30;60886;55.034;73.150;2024-01-27T02:19:21;-15.36;80.06
72762;SHT30;60886;55.034;73.150;2024-01-27T02:22:23;-15.40;79.78
72762;SHT30;60886;55.034;73.150;2024-01-27T02:25:24;-15.40;79.94
72762;SHT30;60886;55.034;73.150;2024-01-27T02:28:26;-15.38;79.92
72762;SHT30;60886;55.034;73.150;2024-01-27T02:31:28;-15.41;80.00
72762;SHT30;60886;55.034;73.150;2024-01-27T02:34:50;-15.40;80.11
72762;SHT30;60886;55.034;73.150;2024-01-27T02:38:01;-15.40;80.20
72762;SHT30;60886;55.034;73.150;2024-01-27T02:41:02;-15.38;80.24
72762;SHT30;60886;55.034;73.150;2024-01-27T02:44:09;-15.38;80.21
72762;SHT30;60886;55.034;73.150;2024-01-27T02:47:21;-15.31;80.36
72762;SHT30;60886;55.034;73.150;2024-01-27T02:50:27;-15.31;80.41
72762;SHT30;60886;55.034;73.150;2024-01-27T02:53:28;-15.28;80.28
72762;SHT30;60886;55.034;73.150;2024-01-27T02:56:30;-15.31;80.12
72762;SHT30;60886;55.034;73.150;2024-01-27T02:59:32;-15.27;80.21
72762;SHT30;60886;55.034;73.150;2024-01-27T03:02:36;-15.26;80.31
72762;SHT30;60886;55.034;73.150;2024-01-27T03:05:38;-15.28;80.16
72762;SHT30;60886;55.034;73.150;2024-01-27T03:08:39;-15.27;80.05
72762;SHT30;60886;55.034;73.150;2024-01-27T03:11:45;-15.23;80.18
72762;SHT30;60886;55.034;73.150;2024-01-27T03:14:46;-15.28;79.81
72762;SHT30;60886;55.034;73.150;2024-01-27T03:18:03;-15.30;79.81
72762;SHT30;60886;55.034;73.150;2024-01-27T03:21:06;-15.33;79.88
72762;SHT30;60886;55.034;73.150;2024-01-27T03:24:09;-15.33;79.74
72762;SHT30;60886;55.034;73.150;2024-01-27T03:27:14;-15.33;79.43
72762;SHT30;60886;55.034;73.150;2024-01-27T03:30:17;-15.36;79.15
72762;SHT30;60886;55.034;73.150;2024-01-27T03:33:19;-15.41;79.00
72762;SHT30;60886;55.034;73.150;2024-01-27T03:36:24;-15.46;79.14
72762;SHT30;60886;55.034;73.150;2024-01-27T03:39:25;-15.43;79.23
72762;SHT30;60886;55.034;73.150;2024-01-27T03:42:27;-15.40;78.96
72762;SHT30;60886;55.034;73.150;2024-01-27T03:45:29;-15.46;78.29
72762;SHT30;60886;55.034;73.150;2024-01-27T03:48:30;-15.53;77.72
72762;SHT30;60886;55.034;73.150;2024-01-27T03:51:32;-15.57;77.51
72762;SHT30;60886;55.034;73.150;2024-01-27T03:54:33;-15.58;77.62
72762;SHT30;60886;55.034;73.150;2024-01-27T03:57:35;-15.57;77.62
72762;SHT30;60886;55.034;73.150;2024-01-27T04:00:41;-15.61;77.02
72762;SHT30;60886;55.034;73.150;2024-01-27T04:03:42;-15.62;76.67
72762;SHT30;60886;55.034;73.150;2024-01-27T04:06:43;-15.58;76.95
72762;SHT30;60886;55.034;73.150;2024-01-27T04:09:45;-15.61;76.85
72762;SHT30;60886;55.034;73.150;2024-01-27T04:12:46;-15.53;76.77
72762;SHT30;60886;55.034;73.150;2024-01-27T04:15:47;-15.37;77.71
72762;SHT30;60886;55.034;73.150;2024-01-27T04:18:49;-15.36;77.24
72762;SHT30;60886;55.034;73.150;2024-01-27T04:21:50;-15.41;76.87
72762;SHT30;60886;55.034;73.150;2024-01-27T04:24:52;-15.36;76.75
72762;SHT30;60886;55.034;73.150;2024-01-27T04:27:53;-15.43;75.81
72762;SHT30;60886;55.034;73.150;2024-01-27T04:30:54;-15.47;75.36
72762;SHT30;60886;55.034;73.150;2024-01-27T04:33:56;-15.51;75.24
72762;SHT30;60886;55.034;73.150;2024-01-27T04:36:57;-15.50;75.17
72762;SHT30;60886;55.034;73.150;2024-01-27T04:39:59;-15.50;74.94
72762;SHT30;60886;55.034;73.150;2024-01-27T04:43:00;-15.41;74.95
72762;SHT30;60886;55.034;73.150;2024-01-27T04:46:02;-15.31;75.27
72762;SHT30;60886;55.034;73.150;2024-01-27T04:49:03;-15.22;75.21
72762;SHT30;60886;55.034;73.150;2024-01-27T04:52:05;-15.16;75.15
72762;SHT30;60886;55.034;73.150;2024-01-27T04:55:07;-15.06;75.03
72762;SHT30;60886;55.034;73.150;2024-01-27T04:58:08;-14.95;74.96
72762;SHT30;60886;55.034;73.150;2024-01-27T05:01:10;-14.81;74.95
72762;SHT30;60886;55.034;73.150;2024-01-27T05:04:12;-14.78;75.09
72762;SHT30;60886;55.034;73.150;2024-01-27T05:07:14;-14.69;75.42
72762;SHT30;60886;55.034;73.150;2024-01-27T05:10:15;-14.62;75.63
72762;SHT30;60886;55.034;73.150;2024-01-27T05:13:40;-14.41;76.01
72762;SHT30;60886;55.034;73.150;2024-01-27T05:16:41;-14.24;75.84
72762;SHT30;60886;55.034;73.150;2024-01-27T05:19:43;-14.02;76.20
72762;SHT30;60886;55.034;73.150;2024-01-27T05:22:45;-13.85;76.08
72762;SHT30;60886;55.034;73.150;2024-01-27T05:25:47;-13.63;76.54
72762;SHT30;60886;55.034;73.150;2024-01-27T05:28:48;-13.32;76.30
72762;SHT30;60886;55.034;73.150;2024-01-27T05:31:49;-13.21;75.66
72762;SHT30;60886;55.034;73.150;2024-01-27T05:34:51;-13.08;75.31
72762;SHT30;60886;55.034;73.150;2024-01-27T05:37:52;-12.97;74.81
72762;SHT30;60886;55.034;73.150;2024-01-27T05:40:55;-12.86;74.77
72762;SHT30;60886;55.034;73.150;2024-01-27T05:43:56;-12.77;74.43
72762;SHT30;60886;55.034;73.150;2024-01-27T05:47:01;-12.77;74.27
72762;SHT30;60886;55.034;73.150;2024-01-27T05:50:02;-12.73;74.32
72762;SHT30;60886;55.034;73.150;2024-01-27T05:53:05;-12.65;74.24
72762;SHT30;60886;55.034;73.150;2024-01-27T05:56:07;-12.57;74.26
72762;SHT30;60886;55.034;73.150;2024-01-27T05:59:09;-12.52;74.09
72762;SHT30;60886;55.034;73.150;2024-01-27T06:02:10;-12.48;74.04
72762;SHT30;60886;55.034;73.150;2024-01-27T06:05:12;-12.45;73.94
72762;SHT30;60886;55.034;73.150;2024-01-27T06:08:13;-12.39;73.94
72762;SHT30;60886;55.034;73.150;2024-01-27T06:11:24;-12.32;73.98
72762;SHT30;60886;55.034;73.150;2024-01-27T06:14:26;-12.28;73.57
72762;SHT30;60886;55.034;73.150;2024-01-27T06:17:27;-12.25;73.65
72762;SHT30;60886;55.034;73.150;2024-01-27T06:20:29;-12.22;73.48
72762;SHT30;60886;55.034;73.150;2024-01-27T06:23:30;-12.18;73.37
72762;SHT30;60886;55.034;73.150;2024-01-27T06:26:32;-12.14;73.45
72762;SHT30;60886;55.034;73.150;2024-01-27T06:29:34;-12.10;73.46
72762;SHT30;60886;55.034;73.150;2024-01-27T06:32:36;-12.07;73.17
72762;SHT30;60886;55.034;73.150;2024-01-27T06:35:37;-12.05;73.13
72762;SHT30;60886;55.034;73.150;2024-01-27T06:38:40;-12.07;73.01
72762;SHT30;60886;55.034;73.150;2024-01-27T06:41:41;-11.92;73.22
72762;SHT30;60886;55.034;73.150;2024-01-27T06:44:43;-11.91;72.82
72762;SHT30;60886;55.034;73.150;2024-01-27T06:47:44;-11.87;72.86
72762;SHT30;60886;55.034;73.150;2024-01-27T06:50:45;-11.85;72.63
72762;SHT30;60886;55.034;73.150;2024-01-27T06:53:47;-11.85;72.56
72762;SHT30;60886;55.034;73.150;2024-01-27T06:56:49;-11.88;72.41
72762;SHT30;60886;55.034;73.150;2024-01-27T06:59:59;-11.87;72.55
72762;SHT30;60886;55.034;73.150;2024-01-27T07:03:00;-11.84;72.30
72762;SHT30;60886;55.034;73.150;2024-01-27T07:06:02;-11.87;72.17
72762;SHT30;60886;55.034;73.150;2024-01-27T07:09:03;-11.82;72.19
72762;SHT30;60886;55.034;73.150;2024-01-27T07:12:05;-11.77;72.25
72762;SHT30;60886;55.034;73.150;2024-01-27T07:15:07;-11.67;71.75
72762;SHT30;60886;55.034;73.150;2024-01-27T07:18:09;-11.64;71.48
72762;SHT30;60886;55.034;73.150;2024-01-27T07:21:15;-11.66;71.59
72762;SHT30;60886;55.034;73.150;2024-01-27T07:24:17;-11.69;71.60
72762;SHT30;60886;55.034;73.150;2024-01-27T07:27:19;-11.67;71.64
72762;SHT30;60886;55.034;73.150;2024-01-27T07:30:20;-11.64;71.63
72762;SHT30;60886;55.034;73.150;2024-01-27T07:33:22;-11.64;71.56
72762;SHT30;60886;55.034;73.150;2024-01-27T07:36:24;-11.73;71.56
72762;SHT30;60886;55.034;73.150;2024-01-27T07:39:27;-11.70;71.64
72762;SHT30;60886;55.034;73.150;2024-01-27T07:42:28;-11.69;71.19
72762;SHT30;60886;55.034;73.150;2024-01-27T07:45:29;-11.75;70.19
72762;SHT30;60886;55.034;73.150;2024-01-27T07:48:31;-11.78;69.79
72762;SHT30;60886;55.034;73.150;2024-01-27T07:51:32;-11.87;69.35
72762;SHT30;60886;55.034;73.150;2024-01-27T07:54:34;-11.81;69.57
72762;SHT30;60886;55.034;73.150;2024-01-27T07:57:39;-11.99;69.41
72762;SHT30;60886;55.034;73.150;2024-01-27T08:00:41;-12.08;69.53
72762;SHT30;60886;55.034;73.150;2024-01-27T08:03:42;-12.18;69.96
72762;SHT30;60886;55.034;73.150;2024-01-27T08:06:49;-12.14;70.34
72762;SHT30;60886;55.034;73.150;2024-01-27T08:09:50;-12.17;70.17
72762;SHT30;60886;55.034;73.150;2024-01-27T08:12:52;-12.18;70.01
72762;SHT30;60886;55.034;73.150;2024-01-27T08:15:53;-12.25;70.30
72762;SHT30;60886;55.034;73.150;2024-01-27T08:18:54;-12.28;70.58
72762;SHT30;60886;55.034;73.150;2024-01-27T08:21:56;-12.28;70.95
72762;SHT30;60886;55.034;73.150;2024-01-27T08:24:58;-12.29;70.98
72762;SHT30;60886;55.034;73.150;2024-01-27T08:27:59;-12.17;70.85
72762;SHT30;60886;55.034;73.150;2024-01-27T08:31:01;-12.20;71.02
72762;SHT30;60886;55.034;73.150;2024-01-27T08:34:02;-12.17;71.04
72762;SHT30;60886;55.034;73.150;2024-01-27T08:37:22;-12.08;71.00
72762;SHT30;60886;55.034;73.150;2024-01-27T08:40:23;-12.01;71.13
72762;SHT30;60886;55.034;73.150;2024-01-27T08:43:30;-11.94;70.90
72762;SHT30;60886;55.034;73.150;2024-01-27T08:46:32;-12.04;70.26
72762;SHT30;60886;55.034;73.150;2024-01-27T08:49:33;-12.04;70.76
72762;SHT30;60886;55.034;73.150;2024-01-27T08:52:34;-12.11;70.63
72762;SHT30;60886;55.034;73.150;2024-01-27T08:55:36;-12.18;71.07
72762;SHT30;60886;55.034;73.150;2024-01-27T08:58:37;-12.10;71.37
72762;SHT30;60886;55.034;73.150;2024-01-27T09:01:39;-12.12;71.27
72762;SHT30;60886;55.034;73.150;2024-01-27T09:04:40;-11.99;71.49
72762;SHT30;60886;55.034;73.150;2024-01-27T09:07:41;-12.04;70.96
72762;SHT30;60886;55.034;73.150;2024-01-27T09:10:43;-12.08;70.99
72762;SHT30;60886;55.034;73.150;2024-01-27T09:13:44;-12.11;71.03
72762;SHT30;60886;55.034;73.150;2024-01-27T09:16:46;-12.07;71.35
72762;SHT30;60886;55.034;73.150;2024-01-27T09:19:48;-12.07;71.70
72762;SHT30;60886;55.034;73.150;2024-01-27T09:22:54;-12.04;71.29
72762;SHT30;60886;55.034;73.150;2024-01-27T09:25:55;-11.94;71.67
72762;SHT30;60886;55.034;73.150;2024-01-27T09:29:06;-12.04;71.40
72762;SHT30;60886;55.034;73.150;2024-01-27T09:32:08;-12.07;71.92
72762;SHT30;60886;55.034;73.150;2024-01-27T09:35:10;-12.12;71.68
72762;SHT30;60886;55.034;73.150;2024-01-27T09:38:15;-12.10;71.80
72762;SHT30;60886;55.034;73.150;2024-01-27T09:41:23;-12.18;71.96
72762;SHT30;60886;55.034;73.150;2024-01-27T09:44:26;-12.11;72.12
72762;SHT30;60886;55.034;73.150;2024-01-27T09:47:28;-12.12;71.76
72762;SHT30;60886;55.034;73.150;2024-01-27T09:50:30;-12.17;71.73
72762;SHT30;60886;55.034;73.150;2024-01-27T09:53:31;-12.21;71.98
72762;SHT30;60886;55.034;73.150;2024-01-27T09:56:34;-12.18;71.78
72762;SHT30;60886;55.034;73.150;2024-01-27T09:59:36;-12.29;71.93
72762;SHT30;60886;55.034;73.150;2024-01-27T10:02:41;-12.24;72.43
72762;SHT30;60886;55.034;73.150;2024-01-27T10:05:43;-12.29;72.40
72762;SHT30;60886;55.034;73.150;2024-01-27T10:08:53;-12.21;72.16
72762;SHT30;60886;55.034;73.150;2024-01-27T10:11:55;-12.24;72.10
72762;SHT30;60886;55.034;73.150;2024-01-27T10:14:58;-12.36;72.06
72762;SHT30;60886;55.034;73.150;2024-01-27T10:18:06;-12.36;72.43
72762;SHT30;60886;55.034;73.150;2024-01-27T10:21:15;-12.34;72.46
72762;SHT30;60886;55.034;73.150;2024-01-27T10:24:22;-12.34;72.26
72762;SHT30;60886;55.034;73.150;2024-01-27T10:27:38;-12.32;72.24
72762;SHT30;60886;55.034;73.150;2024-01-27T10:30:39;-12.44;72.37
72762;SHT30;60886;55.034;73.150;2024-01-27T10:33:51;-12.49;72.60
72762;SHT30;60886;55.034;73.150;2024-01-27T10:36:53;-12.48;72.80
72762;SHT30;60886;55.034;73.150;2024-01-27T10:40:04;-12.48;72.75
72762;SHT30;60886;55.034;73.150;2024-01-27T10:43:09;-12.55;72.62
72762;SHT30;60886;55.034;73.150;2024-01-27T10:46:13;-12.59;73.09
72762;SHT30;60886;55.034;73.150;2024-01-27T10:49:17;-12.59;73.17
72762;SHT30;60886;55.034;73.150;2024-01-27T10:52:21;-12.62;73.19
72762;SHT30;60886;55.034;73.150;2024-01-27T10:55:23;-12.62;73.02
72762;SHT30;60886;55.034;73.150;2024-01-27T10:58:26;-12.67;73.12
72762;SHT30;60886;55.034;73.150;2024-01-27T11:01:29;-12.70;73.19
72762;SHT30;60886;55.034;73.150;2024-01-27T11:04:33;-12.69;73.46
72762;SHT30;60886;55.034;73.150;2024-01-27T11:07:38;-12.75;73.25
72762;SHT30;60886;55.034;73.150;2024-01-27T11:10:40;-12.72;73.55
72762;SHT30;60886;55.034;73.150;2024-01-27T11:13:43;-12.70;73.39
72762;SHT30;60886;55.034;73.150;2024-01-27T11:16:46;-12.84;73.15
72762;SHT30;60886;55.034;73.150;2024-01-27T11:19:49;-12.94;73.45
72762;SHT30;60886;55.034;73.150;2024-01-27T11:22:51;-12.96;73.70
72762;SHT30;60886;55.034;73.150;2024-01-27T11:26:02;-13.03;73.88
72762;SHT30;60886;55.034;73.150;2024-01-27T11:29:08;-13.03;73.98
72762;SHT30;60886;55.034;73.150;2024-01-27T11:32:33;-13.06;74.01
72762;SHT30;60886;55.034;73.150;2024-01-27T11:35:37;-13.01;74.38
72762;SHT30;60886;55.034;73.150;2024-01-27T11:38:38;-13.08;74.09
72762;SHT30;60886;55.034;73.150;2024-01-27T11:41:41;-13.21;74.18
72762;SHT30;60886;55.034;73.150;2024-01-27T11:44:44;-13.22;74.49
72762;SHT30;60886;55.034;73.150;2024-01-27T11:47:46;-13.25;74.43
72762;SHT30;60886;55.034;73.150;2024-01-27T11:50:47;-13.25;74.47
72762;SHT30;60886;55.034;73.150;2024-01-27T11:53:49;-13.32;74.38
72762;SHT30;60886;55.034;73.150;2024-01-27T11:56:50;-13.32;74.60
72762;SHT30;60886;55.034;73.150;2024-01-27T11:59:52;-13.44;74.51
72762;SHT30;60886;55.034;73.150;2024-01-27T12:02:53;-13.49;74.88
72762;SHT30;60886;55.034;73.150;2024-01-27T12:05:55;-13.54;75.07
72762;SHT30;60886;55.034;73.150;2024-01-27T12:08:57;-13.58;74.96
72762;SHT30;60886;55.034;73.150;2024-01-27T12:11:59;-13.66;75.15
72762;SHT30;60886;55.034;73.150;2024-01-27T12:15:00;-13.70;75.39
72762;SHT30;60886;55.034;73.150;2024-01-27T12:18:17;-13.73;75.77
72762;SHT30;60886;55.034;73.150;2024-01-27T12:21:23;-13.72;75.98
72762;SHT30;60886;55.034;73.150;2024-01-27T12:24:25;-13.72;75.94
72762;SHT30;60886;55.034;73.150;2024-01-27T12:27:46;-13.76;75.77
72762;SHT30;60886;55.034;73.150;2024-01-27T12:30:48;-13.77;75.85
72762;SHT30;60886;55.034;73.150;2024-01-27T12:34:00;-13.83;75.78
72762;SHT30;60886;55.034;73.150;2024-01-27T12:37:22;-13.87;75.51
72762;SHT30;60886;55.034;73.150;2024-01-27T12:40:23;-13.85;75.98
72762;SHT30;60886;55.034;73.150;2024-01-27T12:43:25;-13.90;75.82
72762;SHT30;60886;55.034;73.150;2024-01-27T12:46:30;-13.90;76.35
72762;SHT30;60886;55.034;73.150;2024-01-27T12:49:32;-14.03;76.50
72762;SHT30;60886;55.034;73.150;2024-01-27T12:52:34;-14.06;77.17
72762;SHT30;60886;55.034;73.150;2024-01-27T12:55:35;-14.06;76.98
72762;SHT30;60886;55.034;73.150;2024-01-27T12:58:52;-14.16;76.83
72762;SHT30;60886;55.034;73.150;2024-01-27T13:01:54;-14.14;76.87
72762;SHT30;60886;55.034;73.150;2024-01-27T13:05:11;-14.24;76.96
72762;SHT30;60886;55.034;73.150;2024-01-27T13:08:14;-14.26;77.57
72762;SHT30;60886;55.034;73.150;2024-01-27T13:11:30;-14.33;77.46
72762;SHT30;60886;55.034;73.150;2024-01-27T13:14:31;-14.38;77.64
72762;SHT30;60886;55.034;73.150;2024-01-27T13:17:32;-14.37;77.80
72762;SHT30;60886;55.034;73.150;2024-01-27T13:20:39;-14.37;77.86
72762;SHT30;60886;55.034;73.150;2024-01-27T13:23:59;-14.27;77.95
72762;SHT30;60886;55.034;73.150;2024-01-27T13:27:14;-14.24;77.69
72762;SHT30;60886;55.034;73.150;2024-01-27T13:30:15;-14.21;77.89
72762;SHT30;60886;55.034;73.150;2024-01-27T13:33:18;-14.24;77.74
72762;SHT30;60886;55.034;73.150;2024-01-27T13:36:24;-14.33;77.28
72762;SHT30;60886;55.034;73.150;2024-01-27T13:39:26;-14.38;77.54
72762;SHT30;60886;55.034;73.150;2024-01-27T13:42:27;-14.34;78.35
72762;SHT30;60886;55.034;73.150;2024-01-27T13:45:29;-14.36;78.08
72762;SHT30;60886;55.034;73.150;2024-01-27T13:48:30;-14.41;78.27
72762;SHT30;60886;55.034;73.150;2024-01-27T13:51:32;-14.47;77.63
72762;SHT30;60886;55.034;73.150;2024-01-27T13:54:33;-14.36;78.35
72762;SHT30;60886;55.034;73.150;2024-01-27T13:57:35;-14.36;78.20
72762;SHT30;60886;55.034;73.150;2024-01-27T14:00:37;-14.44;78.10
72762;SHT30;60886;55.034;73.150;2024-01-27T14:03:39;-14.48;78.32
72762;SHT30;60886;55.034;73.150;2024-01-27T14:06:41;-14.47;78.61
72762;SHT30;60886;55.034;73.150;2024-01-27T14:09:43;-14.54;78.60
72762;SHT30;60886;55.034;73.150;2024-01-27T14:12:46;-14.47;79.10
72762;SHT30;60886;55.034;73.150;2024-01-27T14:15:47;-14.48;78.83
72762;SHT30;60886;55.034;73.150;2024-01-27T14:18:50;-14.86;77.40
72762;SHT30;60886;55.034;73.150;2024-01-27T14:21:52;-15.13;76.13
72762;SHT30;60886;55.034;73.150;2024-01-27T14:24:54;-15.36;75.81
72762;SHT30;60886;55.034;73.150;2024-01-27T14:27:55;-15.57;76.33
72762;SHT30;60886;55.034;73.150;2024-01-27T14:30:57;-15.81;75.26
72762;SHT30;60886;55.034;73.150;2024-01-27T14:33:58;-15.96;76.01
72762;SHT30;60886;55.034;73.150;2024-01-27T14:37:00;-15.98;75.87
72762;SHT30;60886;55.034;73.150;2024-01-27T14:40:08;-16.05;76.19
72762;SHT30;60886;55.034;73.150;2024-01-27T14:43:09;-15.92;77.56
72762;SHT30;60886;55.034;73.150;2024-01-27T14:46:12;-16.02;77.53
72762;SHT30;60886;55.034;73.150;2024-01-27T14:49:15;-16.08;76.40
72762;SHT30;60886;55.034;73.150;2024-01-27T14:52:17;-16.20;76.85
72762;SHT30;60886;55.034;73.150;2024-01-27T14:55:18;-16.32;76.22
72762;SHT30;60886;55.034;73.150;2024-01-27T14:58:21;-16.33;75.68
72762;SHT30;60886;55.034;73.150;2024-01-27T15:01:23;-16.26;76.95
72762;SHT30;60886;55.034;73.150;2024-01-27T15:04:25;-16.17;77.38
72762;SHT30;60886;55.034;73.150;2024-01-27T15:07:27;-15.99;77.98
72762;SHT30;60886;55.034;73.150;2024-01-27T15:10:30;-15.96;78.68
72762;SHT30;60886;55.034;73.150;2024-01-27T15:13:32;-15.99;78.21
72762;SHT30;60886;55.034;73.150;2024-01-27T15:16:34;-15.95;78.53
72762;SHT30;60886;55.034;73.150;2024-01-27T15:19:36;-16.02;78.18
72762;SHT30;60886;55.034;73.150;2024-01-27T15:22:38;-16.05;78.60
72762;SHT30;60886;55.034;73.150;2024-01-27T15:25:40;-16.16;77.97
72762;SHT30;60886;55.034;73.150;2024-01-27T15:28:42;-16.13;77.65
72762;SHT30;60886;55.034;73.150;2024-01-27T15:31:43;-16.10;78.73
72762;SHT30;60886;55.034;73.150;2024-01-27T15:34:45;-16.29;77.71
72762;SHT30;60886;55.034;73.150;2024-01-27T15:37:48;-16.41;77.96
72762;SHT30;60886;55.034;73.150;2024-01-27T15:40:49;-16.40;78.13
72762;SHT30;60886;55.034;73.150;2024-01-27T15:43:51;-16.37;77.75
72762;SHT30;60886;55.034;73.150;2024-01-27T15:46:52;-16.41;77.14
72762;SHT30;60886;55.034;73.150;2024-01-27T15:49:54;-16.37;77.23
72762;SHT30;60886;55.034;73.150;2024-01-27T15:53:06;-16.30;77.86
72762;SHT30;60886;55.034;73.150;2024-01-27T15:56:09;-16.32;77.63
72762;SHT30;60886;55.034;73.150;2024-01-27T15:59:11;-16.58;76.81
72762;SHT30;60886;55.034;73.150;2024-01-27T16:02:12;-16.63;77.34
72762;SHT30;60886;55.034;73.150;2024-01-27T16:05:14;-16.68;77.58
72762;SHT30;60886;55.034;73.150;2024-01-27T16:08:16;-16.83;76.97
72762;SHT30;60886;55.034;73.150;2024-01-27T16:11:26;-16.88;77.09
72762;SHT30;60886;55.034;73.150;2024-01-27T16:14:28;-17.05;77.21
72762;SHT30;60886;55.034;73.150;2024-01-27T16:17:30;-17.07;78.42
72762;SHT30;60886;55.034;73.150;2024-01-27T16:20:31;-17.16;78.84
72762;SHT30;60886;55.034;73.150;2024-01-27T16:23:33;-17.16;79.03
72762;SHT30;60886;55.034;73.150;2024-01-27T16:26:34;-17.23;78.79
72762;SHT30;60886;55.034;73.150;2024-01-27T16:29:36;-17.08;79.33
72762;SHT30;60886;55.034;73.150;2024-01-27T16:32:37;-17.04;79.99
72762;SHT30;60886;55.034;73.150;2024-01-27T16:35:39;-16.92;80.28
72762;SHT30;60886;55.034;73.150;2024-01-27T16:38:41;-16.90;79.58
72762;SHT30;60886;55.034;73.150;2024-01-27T16:41:42;-17.05;78.76
72762;SHT30;60886;55.034;73.150;2024-01-27T16:44:46;-17.00;78.53
72762;SHT30;60886;55.034;73.150;2024-01-27T16:47:48;-16.94;78.31
72762;SHT30;60886;55.034;73.150;2024-01-27T16:50:49;-17.10;78.13
72762;SHT30;60886;55.034;73.150;2024-01-27T16:53:51;-17.02;78.69
72762;SHT30;60886;55.034;73.150;2024-01-27T16:56:54;-16.95;79.27
72762;SHT30;60886;55.034;73.150;2024-01-27T16:59:57;-16.84;79.37
72762;SHT30;60886;55.034;73.150;2024-01-27T17:02:58;-16.84;79.09
72762;SHT30;60886;55.034;73.150;2024-01-27T17:06:00;-17.07;77.98
72762;SHT30;60886;55.034;73.150;2024-01-27T17:09:02;-17.02;78.30
72762;SHT30;60886;55.034;73.150;2024-01-27T17:12:04;-16.97;78.98
72762;SHT30;60886;55.034;73.150;2024-01-27T17:15:07;-16.98;78.68
72762;SHT30;60886;55.034;73.150;2024-01-27T17:18:09;-16.95;78.53
72762;SHT30;60886;55.034;73.150;2024-01-27T17:21:11;-17.04;77.64
72762;SHT30;60886;55.034;73.150;2024-01-27T17:24:12;-17.07;77.88
72762;SHT30;60886;55.034;73.150;2024-01-27T17:27:13;-16.98;78.74
72762;SHT30;60886;55.034;73.150;2024-01-27T17:30:15;-16.81;78.82
72762;SHT30;60886;55.034;73.150;2024-01-27T17:33:16;-16.77;78.67
72762;SHT30;60886;55.034;73.150;2024-01-27T17:36:23;-16.80;78.29
72762;SHT30;60886;55.034;73.150;2024-01-27T17:39:25;-16.83;78.50
72762;SHT30;60886;55.034;73.150;2024-01-27T17:42:26;-16.85;78.50
72762;SHT30;60886;55.034;73.150;2024-01-27T17:45:29;-16.91;78.40
72762;SHT30;60886;55.034;73.150;2024-01-27T17:48:30;-16.84;78.52
72762;SHT30;60886;55.034;73.150;2024-01-27T17:51:32;-16.73;78.85
72762;SHT30;60886;55.034;73.150;2024-01-27T17:54:35;-16.68;78.56
72762;SHT30;60886;55.034;73.150;2024-01-27T17:57:36;-16.60;78.47
72762;SHT30;60886;55.034;73.150;2024-01-27T18:00:39;-16.68;77.98
72762;SHT30;60886;55.034;73.150;2024-01-27T18:03:40;-16.65;78.02
72762;SHT30;60886;55.034;73.150;2024-01-27T18:06:42;-16.70;77.90
72762;SHT30;60886;55.034;73.150;2024-01-27T18:09:44;-16.83;77.65
72762;SHT30;60886;55.034;73.150;2024-01-27T18:12:45;-17.05;77.06
72762;SHT30;60886;55.034;73.150;2024-01-27T18:15:47;-17.15;77.10
72762;SHT30;60886;55.034;73.150;2024-01-27T18:18:49;-17.10;78.06
72762;SHT30;60886;55.034;73.150;2024-01-27T18:21:54;-17.02;78.32
72762;SHT30;60886;55.034;73.150;2024-01-27T18:24:56;-17.08;78.01
72762;SHT30;60886;55.034;73.150;2024-01-27T18:27:58;-17.23;77.26
72762;SHT30;60886;55.034;73.150;2024-01-27T18:31:00;-17.29;77.33
72762;SHT30;60886;55.034;73.150;2024-01-27T18:34:02;-17.57;76.62
72762;SHT30;60886;55.034;73.150;2024-01-27T18:37:04;-17.87;76.43
72762;SHT30;60886;55.034;73.150;2024-01-27T18:40:06;-18.08;76.91
72762;SHT30;60886;55.034;73.150;2024-01-27T18:43:07;-18.01;78.12